Time;durP1;ratioP1;P1;durP2;ratioP2;P2;SDS_P1;SDS_P2;PMS_P1;PMS_P2;Temp;Humidity;BMP_temperature;BMP_pressure;BME280_temperature;BME280_humidity;BME280_pressure;Samples;Min_cycle;Max_cycle;Signal;HPM_P1;HPM_P2
2023/11/10 00:00:10;;;;;;;4.90;4.10;;;;;;;11.73;48.79;102334.59;107165;1261;25309;-53
2023/11/10 00:02:39;;;;;;;6.50;4.10;;;;;;;11.64;49.26;102333.02;107084;1254;25356;-53
2023/11/10 00:05:07;;;;;;;15.50;4.00;;;;;;;11.61;49.36;102333.89;106968;1257;25133;-53
2023/11/10 00:07:34;;;;;;;4.70;4.20;;;;;;;11.65;49.42;102335.45;106882;1258;22869;-52
2023/11/10 00:10:04;;;;;;;4.40;3.90;;;;;;;11.62;49.40;102338.75;107103;1250;25318;-52
2023/11/10 00:12:31;;;;;;;5.40;4.20;;;;;;;11.59;49.34;102333.71;107171;1254;25380;-52
2023/11/10 00:14:59;;;;;;;6.60;3.90;;;;;;;11.60;49.61;102335.11;107034;1254;25439;-52
2023/11/10 00:17:26;;;;;;;4.60;4.10;;;;;;;11.58;49.86;102333.88;107174;1251;25389;-52
2023/11/10 00:19:53;;;;;;;4.80;3.90;;;;;;;11.54;49.99;102330.06;107196;1257;25405;-52
2023/11/10 00:22:20;;;;;;;7.60;4.00;;;;;;;11.55;50.04;102332.33;107181;1254;25355;-52
2023/11/10 00:24:47;;;;;;;7.10;3.90;;;;;;;11.56;50.09;102335.10;106289;1250;1002829;-53
2023/11/10 00:27:14;;;;;;;4.70;3.70;;;;;;;11.57;50.28;102333.71;107100;1257;25376;-52
2023/11/10 00:29:45;;;;;;;7.40;4.20;;;;;;;11.63;50.14;102332.33;106364;1251;1002725;-53
2023/11/10 00:32:12;;;;;;;5.70;4.30;;;;;;;11.67;50.07;102325.55;107058;1260;25465;-52
2023/11/10 00:34:40;;;;;;;4.70;3.70;;;;;;;11.68;50.09;102321.40;106435;1250;1003283;-52
2023/11/10 00:37:07;;;;;;;5.40;4.20;;;;;;;11.70;50.15;102321.22;106861;1270;25334;-52
2023/11/10 00:39:34;;;;;;;5.20;3.90;;;;;;;11.71;50.12;102313.56;106808;1270;25390;-51
2023/11/10 00:42:02;;;;;;;4.60;4.20;;;;;;;11.70;49.84;102315.66;106974;1267;24203;-52
2023/11/10 00:44:29;;;;;;;4.30;3.90;;;;;;;11.70;49.70;102319.48;107103;1251;25328;-52
2023/11/10 00:46:56;;;;;;;4.20;3.70;;;;;;;11.69;49.89;102316.52;107132;1263;25337;-52
2023/11/10 00:49:23;;;;;;;4.90;3.70;;;;;;;11.69;50.00;102311.30;106215;1250;1003810;-51
2023/11/10 00:51:51;;;;;;;4.60;3.80;;;;;;;11.69;49.98;102309.58;107004;1263;25341;-52
2023/11/10 00:54:18;;;;;;;4.30;3.50;;;;;;;11.69;50.17;102308.70;106751;1257;25445;-51
2023/11/10 00:56:45;;;;;;;4.10;3.60;;;;;;;11.70;50.14;102305.92;106916;1260;22648;-58
2023/11/10 00:59:12;;;;;;;3.90;3.50;;;;;;;11.70;50.22;102307.66;107088;1254;25347;-53
2023/11/10 01:01:39;;;;;;;5.10;3.90;;;;;;;11.70;50.11;102309.23;107124;1257;25353;-53
2023/11/10 01:04:07;;;;;;;5.70;4.40;;;;;;;11.71;49.90;102314.61;107195;1253;25370;-53
2023/11/10 01:06:34;;;;;;;5.30;3.70;;;;;;;11.71;49.90;102310.96;107196;1254;22540;-53
2023/11/10 01:09:01;;;;;;;4.70;4.10;;;;;;;11.69;49.90;102303.49;107111;1256;25334;-53
2023/11/10 01:11:29;;;;;;;4.20;3.70;;;;;;;11.66;50.11;102303.47;107107;1263;25337;-53
2023/11/10 01:13:56;;;;;;;7.10;4.50;;;;;;;11.64;50.35;102307.46;107050;1254;22518;-53
2023/11/10 01:16:23;;;;;;;5.10;3.80;;;;;;;11.61;50.52;102305.56;106519;1254;1003418;-53
2023/11/10 01:18:51;;;;;;;5.90;3.40;;;;;;;11.57;50.48;102308.68;107163;1260;25345;-53
2023/11/10 01:21:18;;;;;;;5.30;4.30;;;;;;;11.54;50.53;102306.08;106104;1269;1003630;-53
2023/11/10 01:23:45;;;;;;;5.20;3.80;;;;;;;11.52;50.58;102303.48;106438;1251;1003570;-53
2023/11/10 01:26:13;;;;;;;5.30;4.40;;;;;;;11.51;50.66;102310.95;106903;1267;25395;-52
2023/11/10 01:28:41;;;;;;;5.90;4.70;;;;;;;11.49;50.74;102309.05;106285;1266;1003732;-53
2023/11/10 01:31:08;;;;;;;5.90;4.70;;;;;;;11.49;50.69;102302.45;107127;1251;24921;-53
2023/11/10 01:33:36;;;;;;;5.50;4.90;;;;;;;11.49;50.56;102297.76;107158;1251;25316;-53
2023/11/10 01:36:05;;;;;;;5.50;4.70;;;;;;;11.50;50.61;102299.84;106350;1254;1002959;-53
2023/11/10 01:38:32;;;;;;;7.30;4.70;;;;;;;11.49;50.85;102305.58;106911;1256;24543;-54
2023/11/10 01:40:59;;;;;;;4.90;4.30;;;;;;;11.49;50.88;102309.73;107100;1263;25468;-54
2023/11/10 01:43:26;;;;;;;7.60;4.70;;;;;;;11.48;50.88;102306.96;107132;1250;22730;-52
2023/11/10 01:45:53;;;;;;;5.20;4.70;;;;;;;11.47;50.93;102303.50;107089;1270;25356;-51
2023/11/10 01:48:20;;;;;;;6.70;5.00;;;;;;;11.45;50.80;102304.36;107124;1255;25475;-51
2023/11/10 01:50:47;;;;;;;4.90;4.40;;;;;;;11.43;50.88;102306.45;107202;1251;25545;-52
2023/11/10 01:53:14;;;;;;;7.80;6.30;;;;;;;11.41;51.01;102302.10;107137;1254;25478;-52
2023/11/10 01:55:43;;;;;;;6.70;5.90;;;;;;;11.41;50.93;102298.64;107143;1259;25343;-51
2023/11/10 01:58:11;;;;;;;6.50;5.90;;;;;;;11.40;50.80;102299.33;107108;1257;25356;-51
2023/11/10 02:00:39;;;;;;;7.90;6.90;;;;;;;11.40;50.82;102294.11;107014;1257;22621;-54
2023/11/10 02:03:07;;;;;;;9.50;7.00;;;;;;;11.42;50.74;102297.06;106934;1260;25540;-52
2023/11/10 02:05:35;;;;;;;8.20;7.40;;;;;;;11.43;50.71;102295.33;107084;1254;22663;-54
2023/11/10 02:08:02;;;;;;;8.20;7.30;;;;;;;11.43;50.72;102296.89;107061;1265;22526;-53
2023/11/10 02:10:31;;;;;;;7.20;6.50;;;;;;;11.43;50.66;102291.52;107054;1253;24396;-53
2023/11/10 02:12:59;;;;;;;7.40;6.60;;;;;;;11.41;50.74;102291.15;107049;1257;25340;-53
2023/11/10 02:15:27;;;;;;;7.00;6.30;;;;;;;11.40;51.00;102294.28;106273;1254;1002854;-53
2023/11/10 02:17:55;;;;;;;6.30;5.70;;;;;;;11.38;51.12;102292.89;106801;1263;25363;-51
2023/11/10 02:20:23;;;;;;;7.50;6.00;;;;;;;11.35;51.30;102288.73;106955;1265;22519;-53
2023/11/10 02:22:50;;;;;;;5.70;5.20;;;;;;;11.33;51.40;102284.39;106873;1258;25321;-53
2023/11/10 02:25:18;;;;;;;5.80;5.10;;;;;;;11.31;51.56;102282.46;106901;1256;23224;-54
2023/11/10 02:27:45;;;;;;;5.90;5.30;;;;;;;11.30;51.57;102279.00;106998;1256;22730;-53
2023/11/10 02:30:12;;;;;;;5.90;4.80;;;;;;;11.30;51.62;102280.73;107126;1261;25331;-53
2023/11/10 02:32:40;;;;;;;5.60;5.00;;;;;;;11.30;51.64;102281.42;107204;1256;25349;-53
2023/11/10 02:35:08;;;;;;;4.80;4.30;;;;;;;11.31;51.72;102280.55;107042;1273;25356;-53
2023/11/10 02:37:36;;;;;;;5.20;4.50;;;;;;;11.31;51.80;102280.02;106862;1256;22533;-51
2023/11/10 02:40:06;;;;;;;4.50;3.90;;;;;;;11.32;51.94;102277.44;107103;1255;22613;-52
2023/11/10 02:42:34;;;;;;;3.70;3.40;;;;;;;11.33;51.90;102279.34;107115;1263;25417;-52
2023/11/10 02:45:03;;;;;;;5.10;3.90;;;;;;;11.35;52.11;102274.99;106834;1263;24200;-52
2023/11/10 02:47:32;;;;;;;3.50;3.20;;;;;;;11.38;52.36;102273.27;107155;1250;25337;-51
2023/11/10 02:49:59;;;;;;;4.70;4.00;;;;;;;11.42;52.39;102272.74;107110;1263;22946;-52
2023/11/10 02:52:26;;;;;;;5.10;3.80;;;;;;;11.45;52.51;102276.55;106404;1254;1003000;-52
2023/11/10 02:54:53;;;;;;;4.10;3.30;;;;;;;11.48;52.56;102278.11;107151;1266;25469;-52
2023/11/10 02:57:21;;;;;;;4.00;3.60;;;;;;;11.51;52.73;102274.64;106309;1260;1003441;-54
2023/11/10 02:59:49;;;;;;;5.60;3.70;;;;;;;11.54;52.67;102278.27;107117;1261;22524;-54
2023/11/10 03:02:16;;;;;;;3.70;3.20;;;;;;;11.56;52.61;102274.64;107136;1263;25328;-52
2023/11/10 03:04:43;;;;;;;5.20;3.60;;;;;;;11.57;52.83;102274.10;106372;1250;1003579;-52
2023/11/10 03:07:10;;;;;;;4.50;4.00;;;;;;;11.60;53.05;102274.27;107099;1254;25328;-51
2023/11/10 03:09:40;;;;;;;4.60;4.00;;;;;;;11.61;53.02;102271.66;107095;1253;22524;-52
2023/11/10 03:12:08;;;;;;;6.90;4.00;;;;;;;11.62;52.96;102268.54;106070;1266;1003049;-53
2023/11/10 03:14:35;;;;;;;4.40;4.00;;;;;;;11.62;52.87;102269.75;106855;1273;25117;-52
2023/11/10 03:17:04;;;;;;;6.10;4.00;;;;;;;11.63;52.99;102267.33;107182;1251;25478;-53
2023/11/10 03:19:31;;;;;;;6.20;4.80;;;;;;;11.63;53.29;102268.36;107163;1250;22527;-53
2023/11/10 03:21:58;;;;;;;5.30;4.80;;;;;;;11.64;53.49;102265.05;107097;1256;25427;-52
2023/11/10 03:24:25;;;;;;;5.20;4.50;;;;;;;11.67;53.49;102265.59;107108;1257;25421;-52
2023/11/10 03:26:52;;;;;;;4.80;4.40;;;;;;;11.68;53.43;102260.04;106758;1266;24216;-51
2023/11/10 03:29:19;;;;;;;5.70;4.00;;;;;;;11.70;53.62;102263.33;107033;1257;25356;-53
2023/11/10 03:31:47;;;;;;;2.90;2.60;;;;;;;11.72;53.97;102263.84;106200;1263;1002954;-53
2023/11/10 03:34:15;;;;;;;3.20;2.70;;;;;;;11.75;54.07;102262.96;106841;1272;25328;-53
2023/11/10 03:36:43;;;;;;;2.20;1.90;;;;;;;11.79;54.23;102261.39;107130;1260;22535;-52
2023/11/10 03:39:10;;;;;;;1.80;1.60;;;;;;;11.86;54.17;102258.42;107086;1255;25318;-53
2023/11/10 03:41:38;;;;;;;2.10;1.90;;;;;;;11.93;54.17;102257.35;107117;1256;25343;-52
2023/11/10 03:44:05;;;;;;;2.30;1.50;;;;;;;12.02;54.13;102262.36;107102;1263;25420;-53
2023/11/10 03:46:32;;;;;;;2.20;1.10;;;;;;;12.01;54.32;102259.40;107025;1263;24258;-51
2023/11/10 03:48:59;;;;;;;1.70;1.30;;;;;;;12.09;54.33;102257.99;107165;1251;25319;-52
2023/11/10 03:51:26;;;;;;;1.70;1.10;;;;;;;12.20;54.25;102261.23;107169;1257;25404;-51
2023/11/10 03:53:53;;;;;;;1.50;1.00;;;;;;;12.33;53.90;102264.48;107051;1254;25328;-53
2023/11/10 03:56:20;;;;;;;2.40;1.50;;;;;;;12.47;53.67;102266.51;107103;1257;25327;-52
2023/11/10 03:58:48;;;;;;;2.20;1.30;;;;;;;12.61;53.43;102265.89;107182;1254;25341;-53
2023/11/10 04:01:15;;;;;;;1.40;1.00;;;;;;;12.73;53.06;102266.86;107284;1254;25318;-51
2023/11/10 04:03:42;;;;;;;1.70;0.90;;;;;;;12.86;52.73;102264.85;107094;1263;25343;-52
2023/11/10 04:06:09;;;;;;;1.30;1.00;;;;;;;12.98;52.54;102262.85;107278;1251;22527;-52
2023/11/10 04:08:36;;;;;;;1.80;1.00;;;;;;;13.10;52.08;102259.13;107081;1256;25346;-52
2023/11/10 04:11:04;;;;;;;0.70;0.70;;;;;;;13.21;51.78;102263.40;106419;1250;1003301;-52
2023/11/10 04:13:30;;;;;;;1.60;0.70;;;;;;;13.31;51.54;102259.80;106922;1254;25405;-52
2023/11/10 04:15:57;;;;;;;1.40;1.30;;;;;;;13.40;51.18;102256.24;107106;1251;25318;-52
2023/11/10 04:18:27;;;;;;;1.50;0.90;;;;;;;13.46;51.09;102260.36;106927;1259;25318;-52
2023/11/10 04:20:55;;;;;;;1.40;0.90;;;;;;;13.52;50.90;102259.09;107095;1255;25356;-53
2023/11/10 04:23:22;;;;;;;2.50;1.10;;;;;;;13.59;50.80;102258.84;107077;1251;25338;-53
2023/11/10 04:25:49;;;;;;;1.50;0.80;;;;;;;13.68;50.52;102261.36;107075;1260;22553;-52
2023/11/10 04:28:16;;;;;;;0.90;0.80;;;;;;;13.76;50.63;102263.02;107135;1254;25471;-52
2023/11/10 04:30:44;;;;;;;1.30;1.00;;;;;;;13.85;50.50;102261.70;107064;1261;25359;-52
2023/11/10 04:33:12;;;;;;;1.50;1.00;;;;;;;13.93;50.34;102265.95;107226;1254;25334;-52
2023/11/10 04:35:39;;;;;;;1.00;0.90;;;;;;;14.00;50.01;102259.09;106927;1273;25355;-52
2023/11/10 04:38:08;;;;;;;0.80;0.80;;;;;;;14.06;49.37;102258.31;107139;1263;25474;-53
2023/11/10 04:40:35;;;;;;;1.00;0.70;;;;;;;14.09;48.86;102264.02;106964;1259;25392;-52
2023/11/10 04:43:02;;;;;;;2.00;0.90;;;;;;;14.13;48.26;102261.70;106867;1257;25337;-52
2023/11/10 04:45:30;;;;;;;2.80;0.90;;;;;;;14.17;47.56;102261.30;107212;1263;24192;-53
2023/11/10 04:47:56;;;;;;;2.30;0.60;;;;;;;14.20;47.43;102261.45;106864;1263;25320;-52
2023/11/10 04:50:23;;;;;;;1.30;0.80;;;;;;;14.23;47.31;102259.49;106932;1257;25328;-52
2023/11/10 04:52:53;;;;;;;0.70;0.70;;;;;;;14.27;47.05;102264.33;107095;1263;25331;-53
2023/11/10 04:55:21;;;;;;;1.00;0.80;;;;;;;14.30;46.84;102269.02;106797;1259;25328;-51
2023/11/10 04:57:48;;;;;;;1.00;0.70;;;;;;;14.34;46.79;102271.41;107161;1250;25336;-54
2023/11/10 05:00:16;;;;;;;1.00;0.80;;;;;;;14.38;46.80;102272.24;106754;1259;25322;-54
2023/11/10 05:02:46;;;;;;;0.60;0.50;;;;;;;14.41;46.55;102276.22;106035;1251;1003147;-53
2023/11/10 05:05:13;;;;;;;1.80;0.70;;;;;;;14.43;45.95;102274.96;107029;1254;23869;-52
2023/11/10 05:07:41;;;;;;;0.70;0.70;;;;;;;14.46;45.03;102275.10;106949;1264;25542;-53
2023/11/10 05:10:08;;;;;;;1.20;0.70;;;;;;;14.49;44.95;102276.46;106906;1259;26496;-52
2023/11/10 05:12:36;;;;;;;1.00;0.60;;;;;;;14.52;45.34;102272.56;106982;1251;25389;-53
2023/11/10 05:15:07;;;;;;;1.00;0.70;;;;;;;14.54;45.51;102271.66;106858;1254;25391;-53
2023/11/10 05:17:35;;;;;;;0.50;0.50;;;;;;;14.57;45.54;102276.69;107005;1252;25360;-53
2023/11/10 05:20:04;;;;;;;1.10;0.70;;;;;;;14.61;45.26;102274.71;107048;1250;24443;-53
2023/11/10 05:22:32;;;;;;;2.00;0.60;;;;;;;14.64;44.95;102277.98;107032;1263;25204;-53
2023/11/10 05:25:03;;;;;;;0.70;0.60;;;;;;;14.68;45.44;102284.90;106941;1251;25548;-52
2023/11/10 05:27:31;;;;;;;0.60;0.60;;;;;;;14.73;45.48;102289.38;106411;1254;1002813;-51
2023/11/10 05:29:58;;;;;;;0.70;0.40;;;;;;;14.77;45.16;102287.21;106990;1254;24350;-51
2023/11/10 05:32:26;;;;;;;0.90;0.60;;;;;;;14.81;45.02;102288.58;106873;1273;25343;-53
2023/11/10 05:34:54;;;;;;;1.80;0.70;;;;;;;14.85;45.24;102291.84;107162;1254;22526;-53
2023/11/10 05:37:21;;;;;;;0.50;0.50;;;;;;;14.87;45.46;102290.39;107221;1254;23867;-51
2023/11/10 05:39:50;;;;;;;1.30;0.60;;;;;;;14.92;45.28;102296.10;107094;1251;25355;-52
2023/11/10 05:42:18;;;;;;;0.60;0.60;;;;;;;14.96;45.10;102300.92;106934;1263;22618;-52
2023/11/10 05:44:45;;;;;;;0.90;0.70;;;;;;;15.00;44.68;102302.43;107154;1254;25337;-52
2023/11/10 05:47:12;;;;;;;0.60;0.50;;;;;;;15.03;44.26;102302.02;107206;1254;22527;-53
2023/11/10 05:49:41;;;;;;;0.80;0.60;;;;;;;15.08;43.72;102300.03;107260;1251;25327;-53
2023/11/10 05:52:12;;;;;;;0.70;0.50;;;;;;;15.14;43.22;102302.55;107204;1263;25355;-52
2023/11/10 05:54:42;;;;;;;1.60;0.90;;;;;;;15.21;43.62;102310.11;107186;1254;25283;-53
2023/11/10 05:57:09;;;;;;;0.80;0.50;;;;;;;15.27;43.73;102309.85;107154;1254;25327;-51
2023/11/10 05:59:36;;;;;;;1.50;0.90;;;;;;;15.31;43.64;102306.28;106955;1259;25404;-52
2023/11/10 06:02:03;;;;;;;2.80;0.70;;;;;;;15.33;43.67;102314.84;107182;1263;22523;-52
2023/11/10 06:04:30;;;;;;;1.00;0.80;;;;;;;15.39;43.86;102311.92;107134;1257;25315;-52
2023/11/10 06:07:03;;;;;;;1.70;0.70;;;;;;;15.47;44.09;102307.45;107077;1263;25337;-52
2023/11/10 06:09:31;;;;;;;1.20;0.70;;;;;;;15.55;44.16;102310.98;106913;1251;25423;-53
2023/11/10 06:11:59;;;;;;;0.90;0.60;;;;;;;15.63;44.73;102311.52;107139;1260;22509;-53
2023/11/10 06:14:26;;;;;;;1.40;0.60;;;;;;;15.70;44.57;102309.32;107123;1255;22542;-52
2023/11/10 06:16:53;;;;;;;1.10;0.80;;;;;;;15.78;44.18;102312.14;107020;1254;25453;-53
2023/11/10 06:19:20;;;;;;;1.80;0.70;;;;;;;15.85;44.25;102316.73;107088;1254;25431;-53
2023/11/10 06:21:49;;;;;;;1.70;0.80;;;;;;;15.92;44.09;102316.58;107093;1257;25324;-52
2023/11/10 06:24:17;;;;;;;0.70;0.60;;;;;;;16.00;43.65;102312.76;107118;1251;25362;-52
2023/11/10 06:26:44;;;;;;;3.80;0.90;;;;;;;16.04;43.90;102315.13;107152;1266;25453;-52
2023/11/10 06:29:12;;;;;;;1.00;0.70;;;;;;;16.08;44.17;102316.45;107122;1257;25356;-52
2023/11/10 06:31:40;;;;;;;1.10;0.80;;;;;;;16.13;43.81;102312.85;107135;1254;25347;-52
2023/11/10 06:34:07;;;;;;;1.40;0.70;;;;;;;16.17;43.46;102309.08;106873;1260;25337;-53
2023/11/10 06:36:35;;;;;;;2.30;0.80;;;;;;;16.19;43.97;102309.21;107092;1257;25500;-53
2023/11/10 06:39:03;;;;;;;2.30;1.00;;;;;;;16.25;44.13;102309.45;107041;1256;23874;-52
2023/11/10 06:41:30;;;;;;;4.80;1.00;;;;;;;16.32;44.03;102306.16;106907;1260;25328;-52
2023/11/10 06:43:57;;;;;;;1.50;0.80;;;;;;;16.37;43.81;102303.06;107066;1257;25515;-52
2023/11/10 06:46:26;;;;;;;2.00;0.90;;;;;;;16.43;43.76;102306.96;107070;1257;24267;-52
2023/11/10 06:48:55;;;;;;;1.20;0.90;;;;;;;16.48;43.14;102305.83;107183;1263;22523;-52
2023/11/10 06:51:22;;;;;;;2.20;0.90;;;;;;;16.52;43.02;102300.14;107164;1254;25226;-52
2023/11/10 06:53:49;;;;;;;2.20;0.90;;;;;;;16.57;43.19;102302.68;107147;1254;25532;-52
2023/11/10 06:56:17;;;;;;;0.70;0.60;;;;;;;16.64;43.35;102304.61;107062;1263;22610;-52
2023/11/10 06:58:44;;;;;;;0.90;0.80;;;;;;;16.70;42.76;102301.33;107089;1254;25309;-53
2023/11/10 07:01:11;;;;;;;1.20;0.80;;;;;;;16.76;42.94;102304.87;107144;1254;25338;-53
2023/11/10 07:03:40;;;;;;;2.50;0.90;;;;;;;16.79;42.97;102297.96;107152;1266;24227;-51
2023/11/10 07:06:08;;;;;;;1.40;0.80;;;;;;;16.83;43.01;102293.66;106934;1267;22596;-52
2023/11/10 07:08:36;;;;;;;1.90;0.80;;;;;;;16.88;43.06;102294.77;107135;1266;25359;-51
2023/11/10 07:11:03;;;;;;;1.60;0.70;;;;;;;16.94;42.46;102291.12;106826;1259;25480;-52
2023/11/10 07:13:30;;;;;;;1.20;0.80;;;;;;;17.00;42.68;102286.80;106910;1267;22524;-52
2023/11/10 07:15:58;;;;;;;0.80;0.60;;;;;;;17.04;43.06;102282.46;107101;1254;22524;-52
2023/11/10 07:18:25;;;;;;;0.90;0.80;;;;;;;17.10;42.82;102280.58;106903;1266;22526;-52
2023/11/10 07:20:54;;;;;;;2.10;1.00;;;;;;;17.16;42.76;102280.94;107111;1257;25481;-53
2023/11/10 07:23:21;;;;;;;1.40;0.60;;;;;;;17.23;43.17;102276.89;107151;1257;25349;-53
2023/11/10 07:25:49;;;;;;;2.00;0.90;;;;;;;17.30;43.48;102271.63;106903;1259;25339;-54
2023/11/10 07:28:16;;;;;;;0.80;0.60;;;;;;;17.38;42.89;102272.31;107061;1251;24208;-54
2023/11/10 07:30:43;;;;;;;1.80;0.80;;;;;;;17.42;42.55;102272.20;107014;1257;25395;-53
2023/11/10 07:33:10;;;;;;;1.50;0.80;;;;;;;17.46;42.42;102272.82;107026;1257;25328;-53
2023/11/10 07:35:37;;;;;;;2.00;0.80;;;;;;;17.50;42.48;102273.96;106625;1264;25478;-53
2023/11/10 07:38:05;;;;;;;3.60;1.10;;;;;;;17.54;42.86;102272.97;107252;1257;25356;-55
2023/11/10 07:40:32;;;;;;;1.20;0.70;;;;;;;17.57;43.18;102274.65;107104;1263;25407;-54
2023/11/10 07:42:59;;;;;;;1.50;0.70;;;;;;;17.62;43.47;102267.98;106838;1269;25399;-53
2023/11/10 07:45:28;;;;;;;1.50;0.70;;;;;;;17.68;42.77;102268.20;106795;1267;25337;-53
2023/11/10 07:47:55;;;;;;;3.00;0.80;;;;;;;17.74;42.31;102271.70;106685;1257;393942;-53
2023/11/10 07:50:24;;;;;;;1.10;0.90;;;;;;;17.79;42.74;102269.81;106850;1256;25449;-51
2023/11/10 07:52:51;;;;;;;2.90;1.00;;;;;;;17.82;42.69;102266.77;106696;1261;22523;-51
2023/11/10 07:55:18;;;;;;;2.00;1.10;;;;;;;17.82;42.80;102263.23;107101;1257;25384;-52
2023/11/10 07:57:48;;;;;;;1.40;0.90;;;;;;;17.83;42.88;102268.13;106914;1256;25390;-52
2023/11/10 08:00:18;;;;;;;2.40;1.10;;;;;;;17.84;42.64;102262.67;107144;1254;25322;-53
2023/11/10 08:02:46;;;;;;;2.40;1.00;;;;;;;17.87;42.65;102263.29;107130;1251;24180;-52
2023/11/10 08:05:13;;;;;;;1.10;0.80;;;;;;;17.92;42.59;102266.32;106938;1256;25322;-53
2023/11/10 08:07:41;;;;;;;1.20;0.70;;;;;;;17.97;42.40;102268.26;106875;1254;25337;-53
2023/11/10 08:10:08;;;;;;;1.80;0.90;;;;;;;18.03;41.93;102267.21;107100;1254;22532;-53
2023/11/10 08:12:37;;;;;;;1.10;0.90;;;;;;;18.10;41.47;102268.96;107100;1263;22599;-53
2023/11/10 08:15:05;;;;;;;3.00;0.90;;;;;;;18.15;41.30;102265.98;106890;1258;22555;-52
2023/11/10 08:17:33;;;;;;;1.40;1.00;;;;;;;18.21;41.30;102266.87;107075;1263;23367;-53
2023/11/10 08:19:59;;;;;;;1.90;0.90;;;;;;;18.25;41.68;102267.63;106765;1266;22519;-53
2023/11/10 08:22:27;;;;;;;1.50;1.00;;;;;;;18.29;41.71;102270.67;107095;1254;25356;-53
2023/11/10 08:24:54;;;;;;;5.70;1.30;;;;;;;18.33;41.94;102274.08;107097;1254;24182;-53
2023/11/10 08:27:22;;;;;;;2.20;1.10;;;;;;;18.34;42.36;102276.48;107114;1263;25423;-54
2023/11/10 08:29:49;;;;;;;1.80;1.20;;;;;;;18.35;42.02;102269.79;107109;1255;22578;-53
2023/11/10 08:32:16;;;;;;;3.40;1.20;;;;;;;18.37;42.09;102271.48;107064;1260;25328;-53
2023/11/10 08:34:44;;;;;;;1.10;0.90;;;;;;;18.39;41.60;102267.76;106877;1270;25377;-53
2023/11/10 08:37:12;;;;;;;2.40;0.90;;;;;;;18.41;40.87;102263.45;107142;1267;25391;-52
2023/11/10 08:39:40;;;;;;;2.20;0.80;;;;;;;18.42;40.67;102264.64;107165;1266;25405;-53
2023/11/10 08:42:08;;;;;;;0.60;0.60;;;;;;;18.44;41.15;102260.05;106927;1260;24383;-52
2023/11/10 08:44:36;;;;;;;3.90;1.10;;;;;;;18.48;41.26;102256.06;106833;1266;25340;-53
2023/11/10 08:47:04;;;;;;;1.60;0.90;;;;;;;18.54;41.44;102259.57;107180;1251;25395;-53
2023/11/10 08:49:36;;;;;;;3.50;1.10;;;;;;;18.58;40.88;102250.29;106838;1267;23854;-54
2023/11/10 08:52:06;;;;;;;3.10;1.00;;;;;;;18.60;40.34;102252.35;107040;1267;22520;-52
2023/11/10 08:54:33;;;;;;;2.30;0.90;;;;;;;18.59;40.69;102251.66;107170;1266;25472;-52
2023/11/10 08:57:02;;;;;;;1.30;1.10;;;;;;;18.64;40.95;102246.93;106852;1272;25346;-53
2023/11/10 08:59:30;;;;;;;2.90;1.10;;;;;;;18.75;41.27;102246.60;106720;1274;25382;-53
2023/11/10 09:01:57;;;;;;;1.70;0.90;;;;;;;18.77;41.30;102243.38;106750;1259;25321;-52
2023/11/10 09:04:25;;;;;;;2.40;0.80;;;;;;;18.76;41.21;102236.53;106888;1263;25407;-53
2023/11/10 09:06:53;;;;;;;1.40;0.80;;;;;;;18.75;41.45;102236.23;106767;1274;25468;-53
2023/11/10 09:09:21;;;;;;;2.30;0.90;;;;;;;18.75;41.45;102238.86;106867;1259;22530;-52
2023/11/10 09:11:49;;;;;;;4.30;1.00;;;;;;;18.78;41.33;102234.73;107181;1267;22540;-53
2023/11/10 09:14:16;;;;;;;1.90;0.70;;;;;;;18.84;41.18;102234.34;106942;1269;25359;-53
2023/11/10 09:16:45;;;;;;;3.20;0.80;;;;;;;18.90;40.82;102227.45;107125;1254;25330;-53
2023/11/10 09:19:13;;;;;;;1.40;0.70;;;;;;;18.98;40.69;102227.20;106951;1270;25478;-52
2023/11/10 09:21:40;;;;;;;1.50;0.80;;;;;;;19.04;40.13;102221.36;106536;1259;25416;-53
2023/11/10 09:24:07;;;;;;;2.30;0.70;;;;;;;19.07;40.14;102215.94;106476;1274;25404;-52
2023/11/10 09:26:36;;;;;;;3.00;1.10;;;;;;;19.10;39.79;102207.43;107013;1254;25449;-52
2023/11/10 09:29:03;;;;;;;1.40;0.90;;;;;;;19.10;40.00;102204.64;106793;1259;25439;-53
2023/11/10 09:31:30;;;;;;;1.80;0.90;;;;;;;19.13;40.09;102205.05;107199;1254;25328;-52
2023/11/10 09:33:58;;;;;;;3.50;1.30;;;;;;;19.20;39.89;102202.70;107126;1266;25516;-53
2023/11/10 09:36:26;;;;;;;2.30;0.70;;;;;;;19.28;39.71;102202.95;107091;1266;25271;-52
2023/11/10 09:38:53;;;;;;;2.50;1.00;;;;;;;19.34;39.14;102199.41;106784;1260;25486;-53
2023/11/10 09:41:23;;;;;;;1.90;0.70;;;;;;;19.39;39.35;102196.20;106847;1267;22620;-52
2023/11/10 09:43:51;;;;;;;3.50;1.20;;;;;;;19.43;38.37;102189.56;107104;1267;25319;-52
2023/11/10 09:46:18;;;;;;;1.20;0.80;;;;;;;19.46;38.77;102188.92;107005;1271;25321;-52
2023/11/10 09:48:47;;;;;;;1.40;0.60;;;;;;;19.39;38.82;102186.20;106582;1274;25319;-52
2023/11/10 09:51:14;;;;;;;2.30;0.90;;;;;;;19.36;38.81;102187.36;107110;1257;25327;-53
2023/11/10 09:53:41;;;;;;;3.00;1.50;;;;;;;19.35;39.12;102184.92;107133;1256;25401;-52
2023/11/10 09:56:10;;;;;;;1.80;0.80;;;;;;;19.35;39.34;102185.98;106949;1267;22523;-53
2023/11/10 09:58:38;;;;;;;2.00;0.90;;;;;;;19.37;39.34;102179.42;107199;1270;22568;-53
2023/11/10 10:01:06;;;;;;;1.20;0.70;;;;;;;19.37;39.34;102172.02;106826;1256;22527;-53
2023/11/10 10:03:35;;;;;;;3.20;0.90;;;;;;;19.36;38.73;102165.35;107080;1266;22642;-53
2023/11/10 10:06:03;;;;;;;1.30;0.70;;;;;;;19.35;38.94;102164.86;107136;1254;25516;-53
2023/11/10 10:08:30;;;;;;;0.90;0.60;;;;;;;19.36;38.80;102161.16;106836;1259;22542;-53
2023/11/10 10:10:58;;;;;;;8.60;0.80;;;;;;;19.37;38.74;102157.41;106904;1267;26430;-53
2023/11/10 10:13:27;;;;;;;2.70;1.00;;;;;;;19.39;38.85;102153.13;106933;1254;25409;-52
2023/11/10 10:16:06;;;;;;;0.90;0.60;;;;;;;19.40;38.97;102149.05;106776;1267;25449;-54
2023/11/10 10:18:34;;;;;;;2.20;0.90;;;;;;;19.40;38.88;102146.40;106899;1267;22533;-54
2023/11/10 10:21:01;;;;;;;2.50;0.60;;;;;;;19.38;38.91;102140.48;107034;1266;25318;-54
2023/11/10 10:23:31;;;;;;;1.80;0.80;;;;;;;19.37;39.67;102139.98;107000;1267;22571;-53
2023/11/10 10:25:58;;;;;;;1.80;0.70;;;;;;;19.36;39.78;102134.94;106778;1260;25453;-53
2023/11/10 10:28:25;;;;;;;1.40;0.70;;;;;;;19.33;39.81;102131.15;107192;1250;22521;-55
2023/11/10 10:30:54;;;;;;;1.10;0.60;;;;;;;19.29;39.79;102126.34;107192;1267;25356;-56
2023/11/10 10:33:22;;;;;;;2.00;0.80;;;;;;;19.27;39.89;102123.26;106322;1270;1003723;-53
2023/11/10 10:35:50;;;;;;;3.60;0.70;;;;;;;19.24;40.00;102120.71;106854;1274;22521;-52
2023/11/10 10:38:20;;;;;;;1.70;0.90;;;;;;;19.22;40.30;102117.64;106890;1270;24254;-52
2023/11/10 10:40:47;;;;;;;3.10;0.90;;;;;;;19.21;40.38;102116.63;106851;1270;26621;-53
2023/11/10 10:43:15;;;;;;;2.70;0.70;;;;;;;19.23;40.27;102111.98;106832;1270;24238;-52
2023/11/10 10:45:42;;;;;;;1.70;0.70;;;;;;;19.25;40.45;102108.37;106925;1260;25247;-52
2023/11/10 10:48:10;;;;;;;2.40;1.00;;;;;;;19.28;40.29;102104.58;106836;1260;25325;-52
2023/11/10 10:50:37;;;;;;;2.20;0.70;;;;;;;19.35;40.51;102102.04;106828;1266;25571;-52
2023/11/10 10:53:07;;;;;;;2.90;0.90;;;;;;;19.42;40.24;102105.11;106866;1259;24371;-52
2023/11/10 10:55:35;;;;;;;3.10;0.70;;;;;;;19.48;40.31;102101.05;106886;1269;22542;-52
2023/11/10 10:58:03;;;;;;;4.40;1.00;;;;;;;19.50;40.09;102100.44;106705;1254;25359;-52
2023/11/10 11:00:32;;;;;;;3.00;0.90;;;;;;;19.50;40.38;102098.69;106770;1259;25474;-52
2023/11/10 11:03:29;;;;;;;3.80;1.00;;;;;;;19.48;40.71;102094.01;106753;1270;25414;-53
2023/11/10 11:06:52;;;;;;;3.20;1.30;;;;;;;19.47;40.84;102097.36;106750;1275;24398;-53
2023/11/10 11:10:00;;;;;;;3.00;1.10;;;;;;;19.44;40.49;102091.52;106278;1277;25485;-53
2023/11/10 11:12:30;;;;;;;3.40;0.90;;;;;;;19.43;40.54;102084.16;105977;1281;25331;-53
2023/11/10 11:15:11;;;;;;;3.70;1.00;;;;;;;19.42;41.12;102087.73;105723;1282;25328;-52
2023/11/10 11:17:38;;;;;;;3.10;0.80;;;;;;;19.41;41.02;102084.25;105900;1281;22604;-52
2023/11/10 11:20:06;;;;;;;3.20;0.90;;;;;;;19.38;40.69;102079.59;105833;1287;25416;-53